Iloilo, Philippines
Current Conditions -  °F | °C
As of 10:00 PM on Thursday 30 Oct 2014 (Local Time) from RPVM Reporting Station
Thunderstorm Thunderstorm  
Wind Chill: 82°   Ceiling: 30000
Heat Index: 89°   Visibility: 6mi
Dew Point: 75°   Wind: 2mph
Humidity: 79%   Direction: NA
Pressure: 29.83"   Gusts: NA
Location:  10.69°N, 122.55°E
Report Text: RPVM 301400Z VRB02KT 9999 -TS FEW018CB BKN300 28/24 Q1010 A2984
Loading
Personal Weather Stations






























Interactive Weather Map
Tropical Storm Tracking
New forecast layout! Learn more

10-Day Weather Forecast

Advertisements
Track Severe Weather on mobile